createdAt,value
2018-11-21T00:02:16.797Z,87.13
2018-11-21T00:04:43.779Z,87.13
2018-11-21T00:07:10.972Z,86.37
2018-11-21T00:09:38.378Z,86.10
2018-11-21T00:12:05.659Z,85.79
2018-11-21T00:14:33.207Z,85.62
2018-11-21T00:17:00.213Z,86.18
2018-11-21T00:19:27.767Z,87.12
2018-11-21T00:21:54.926Z,87.18
2018-11-21T00:24:22.061Z,87.56
2018-11-21T00:26:49.445Z,86.39
2018-11-21T00:29:16.608Z,86.51
2018-11-21T00:31:44.290Z,86.90
2018-11-21T00:34:11.938Z,86.50
2018-11-21T00:36:42.124Z,86.16
2018-11-21T00:39:10.544Z,86.44
2018-11-21T00:41:37.768Z,86.87
2018-11-21T00:44:05.486Z,86.38
2018-11-21T00:46:32.631Z,86.21
2018-11-21T00:49:00.433Z,86.19
2018-11-21T00:51:27.543Z,86.37
2018-11-21T00:53:54.447Z,86.54
2018-11-21T00:56:22.140Z,86.49
2018-11-21T00:58:49.483Z,86.57
2018-11-21T01:01:16.811Z,87.19
2018-11-21T01:03:43.995Z,87.89
2018-11-21T01:06:10.999Z,88.67
2018-11-21T01:08:38.573Z,88.57
2018-11-21T01:11:05.929Z,88.10
2018-11-21T01:13:33.265Z,87.21
2018-11-21T01:16:00.191Z,86.81
2018-11-21T01:18:27.134Z,86.37
2018-11-21T01:20:54.662Z,86.21
2018-11-21T01:23:22.338Z,85.48
2018-11-21T01:25:49.282Z,85.68
2018-11-21T01:28:16.921Z,85.69
2018-11-21T01:30:44.078Z,87.76
2018-11-21T01:33:15.842Z,87.82
2018-11-21T01:35:42.752Z,87.54
2018-11-21T01:38:12.785Z,87.21
2018-11-21T01:40:39.642Z,86.81
2018-11-21T01:43:06.784Z,87.17
2018-11-21T01:45:33.770Z,87.32
2018-11-21T01:48:00.707Z,86.97
2018-11-21T01:50:28.299Z,86.73
2018-11-21T01:52:55.467Z,86.41
2018-11-21T01:55:22.340Z,86.47
2018-11-21T01:57:51.890Z,86.33
2018-11-21T02:00:19.427Z,86.11
2018-11-21T02:02:46.621Z,86.30
2018-11-21T02:05:13.820Z,86.56
2018-11-21T02:07:41.256Z,86.71
2018-11-21T02:10:08.551Z,86.98
2018-11-21T02:12:35.635Z,87.57
2018-11-21T02:15:02.465Z,88.07
2018-11-21T02:17:29.595Z,87.82
2018-11-21T02:19:56.874Z,87.49
2018-11-21T02:22:23.857Z,86.92
2018-11-21T02:24:56.342Z,86.79
2018-11-21T02:27:23.897Z,86.83
2018-11-21T02:29:50.930Z,87.31
2018-11-21T02:32:17.802Z,87.41
2018-11-21T02:34:45.013Z,87.21
2018-11-21T02:37:11.828Z,87.21
2018-11-21T02:39:39.019Z,87.35
2018-11-21T02:42:05.905Z,87.10
2018-11-21T02:44:33.112Z,87.19
2018-11-21T02:47:00.332Z,86.96
2018-11-21T02:49:29.892Z,86.81
2018-11-21T02:51:57.107Z,87.30
2018-11-21T02:54:24.002Z,87.65
2018-11-21T02:57:12.835Z,85.32
2018-11-21T02:59:40.363Z,86.63
2018-11-21T03:02:10.128Z,87.97
2018-11-21T03:04:37.791Z,87.65
2018-11-21T03:07:05.149Z,86.99
2018-11-21T03:09:32.085Z,86.75
2018-11-21T03:11:59.309Z,87.08
2018-11-21T03:14:29.437Z,87.52
2018-11-21T03:16:59.237Z,87.24
2018-11-21T03:19:26.441Z,87.16
2018-11-21T03:21:56.836Z,89.17
2018-11-21T03:24:23.683Z,89.37
2018-11-21T03:26:51.157Z,88.38
2018-11-21T03:29:17.953Z,88.27
2018-11-21T03:31:44.898Z,88.25
2018-11-21T03:34:12.389Z,88.12
2018-11-21T03:36:46.400Z,87.98
2018-11-21T03:39:13.746Z,87.68
2018-11-21T03:41:40.566Z,87.59
2018-11-21T03:44:14.591Z,87.51
2018-11-21T03:46:46.268Z,87.49
2018-11-21T03:49:14.963Z,89.07
2018-11-21T03:51:42.344Z,86.61
2018-11-21T03:54:09.812Z,86.65
2018-11-21T03:56:37.983Z,87.31
2018-11-21T03:59:05.175Z,87.09
2018-11-21T04:01:33.439Z,87.50
2018-11-21T04:04:09.168Z,86.77
2018-11-21T04:06:36.184Z,87.02
2018-11-21T04:09:06.360Z,87.40
2018-11-21T04:11:33.352Z,87.24
2018-11-21T04:14:00.828Z,87.01
2018-11-21T04:16:27.841Z,87.11
2018-11-21T04:18:55.428Z,87.10
2018-11-21T04:21:22.645Z,87.03
2018-11-21T04:23:49.866Z,86.54
2018-11-21T04:26:17.270Z,86.60
2018-11-21T04:28:44.105Z,86.55
2018-11-21T04:31:11.889Z,86.98
2018-11-21T04:33:39.183Z,86.31
2018-11-21T04:36:06.119Z,86.68
2018-11-21T04:38:32.990Z,86.48
2018-11-21T04:41:00.127Z,86.28
2018-11-21T04:43:26.989Z,86.41
2018-11-21T04:45:54.973Z,87.22
2018-11-21T04:48:22.508Z,87.60
2018-11-21T04:50:49.697Z,87.67
2018-11-21T04:53:16.609Z,87.19
2018-11-21T04:55:43.856Z,87.12
2018-11-21T04:58:10.734Z,87.30
2018-11-21T05:00:37.953Z,87.30
2018-11-21T05:03:05.934Z,87.17
2018-11-21T05:05:33.172Z,86.54
2018-11-21T05:08:00.794Z,86.45
2018-11-21T05:10:28.440Z,86.31
2018-11-21T05:12:55.683Z,86.04
2018-11-21T05:15:22.585Z,86.63
2018-11-21T05:17:50.158Z,86.52
2018-11-21T05:20:17.290Z,86.14
2018-11-21T05:22:44.966Z,86.00
2018-11-21T05:25:12.166Z,85.87
2018-11-21T05:27:39.327Z,86.77
2018-11-21T05:30:10.543Z,86.24
2018-11-21T05:32:37.578Z,86.32
2018-11-21T05:35:05.142Z,86.39
2018-11-21T05:37:32.785Z,86.08
2018-11-21T05:39:59.761Z,85.63
2018-11-21T05:42:26.997Z,85.18
2018-11-21T05:44:54.890Z,85.06
2018-11-21T05:47:24.243Z,85.25
2018-11-21T05:49:51.172Z,85.45
2018-11-21T05:52:18.082Z,86.07
2018-11-21T05:54:44.978Z,86.17
2018-11-21T05:57:12.176Z,85.99
2018-11-21T05:59:39.416Z,85.71
2018-11-21T06:02:06.260Z,85.69
2018-11-21T06:04:33.557Z,85.74
2018-11-21T06:07:06.552Z,85.69
2018-11-21T06:09:33.332Z,86.08
2018-11-21T06:12:04.258Z,86.53
2018-11-21T06:14:28.056Z,86.85
2018-11-21T06:16:55.283Z,86.95
2018-11-21T06:19:22.801Z,87.70
2018-11-21T06:21:50.816Z,88.10
2018-11-21T06:24:18.291Z,88.63
2018-11-21T06:26:53.447Z,89.48
2018-11-21T06:29:20.287Z,89.77
2018-11-21T06:31:50.336Z,89.02
2018-11-21T06:34:19.984Z,89.05
2018-11-21T06:36:46.833Z,89.38
2018-11-21T06:39:14.365Z,86.55
2018-11-21T06:41:41.537Z,85.98
2018-11-21T06:44:09.022Z,86.81
2018-11-21T06:46:36.212Z,87.92
2018-11-21T06:49:03.436Z,88.00
2018-11-21T06:51:35.191Z,88.46
2018-11-21T06:53:57.799Z,86.38
2018-11-21T06:56:25.041Z,84.83
2018-11-21T06:58:55.090Z,84.81
2018-11-21T07:01:19.878Z,84.88
2018-11-21T07:03:46.946Z,84.91
2018-11-21T07:06:14.201Z,84.93
2018-11-21T07:08:41.149Z,84.40
2018-11-21T07:11:08.721Z,84.56
2018-11-21T07:13:35.640Z,84.87
2018-11-21T07:16:02.927Z,84.95
2018-11-21T07:18:29.797Z,85.00
2018-11-21T07:20:57.128Z,84.98
2018-11-21T07:23:24.646Z,83.78
2018-11-21T07:25:51.798Z,83.11
2018-11-21T07:28:19.345Z,83.19
2018-11-21T07:30:51.392Z,83.11
2018-11-21T07:33:25.904Z,83.60
2018-11-21T07:35:52.941Z,84.00
2018-11-21T07:38:19.865Z,84.31
2018-11-21T07:40:46.678Z,83.82
2018-11-21T07:43:14.239Z,83.95
2018-11-21T07:45:41.201Z,83.85
2018-11-21T07:48:08.465Z,83.97
2018-11-21T07:50:35.711Z,84.36
2018-11-21T07:53:02.626Z,84.41
2018-11-21T07:55:29.895Z,84.13
2018-11-21T07:57:59.336Z,83.41
2018-11-21T08:01:25.009Z,83.34
2018-11-21T08:03:56.569Z,82.82
2018-11-21T08:09:20.687Z,83.04
2018-11-21T08:12:13.445Z,83.08
2018-11-21T08:14:55.946Z,83.57
2018-11-21T08:17:45.670Z,83.71
2018-11-21T08:20:32.160Z,83.49
2018-11-21T08:23:13.369Z,83.69
2018-11-21T08:26:00.213Z,83.83
2018-11-21T08:28:28.965Z,83.60
2018-11-21T08:30:56.821Z,83.58
2018-11-21T08:33:24.071Z,83.47
2018-11-21T08:35:50.983Z,83.95
2018-11-21T08:38:17.994Z,84.16
2018-11-21T08:40:45.160Z,84.64
2018-11-21T08:43:12.312Z,84.80
2018-11-21T08:45:39.610Z,84.79
2018-11-21T08:48:06.764Z,84.80
2018-11-21T08:50:34.138Z,85.30
2018-11-21T08:53:01.478Z,85.41
2018-11-21T08:55:28.685Z,85.74
2018-11-21T08:57:55.553Z,89.61
2018-11-21T09:00:22.853Z,91.79
2018-11-21T09:02:50.214Z,93.47
2018-11-21T09:05:17.404Z,94.37
2018-11-21T09:07:44.615Z,95.07
2018-11-21T09:10:12.402Z,95.32
2018-11-21T09:12:39.667Z,94.88
2018-11-21T09:15:08.665Z,94.07
2018-11-21T09:17:37.106Z,93.03
2018-11-21T09:20:04.210Z,92.83
2018-11-21T09:22:31.348Z,92.68
2018-11-21T09:24:58.276Z,92.24
2018-11-21T09:27:25.391Z,91.87
2018-11-21T09:29:52.419Z,93.21
2018-11-21T09:32:19.947Z,94.83
2018-11-21T09:34:47.269Z,95.44
2018-11-21T09:37:14.075Z,96.75
2018-11-21T09:39:41.296Z,97.50
2018-11-21T09:42:08.802Z,98.08
2018-11-21T09:44:35.678Z,98.43
2018-11-21T09:47:03.106Z,98.94
2018-11-21T09:49:30.079Z,99.29
2018-11-21T09:51:57.791Z,98.43
2018-11-21T09:54:24.593Z,97.35
2018-11-21T09:56:51.404Z,96.16
2018-11-21T09:59:18.327Z,95.16
2018-11-21T10:02:23.178Z,93.91
2018-11-21T10:04:49.607Z,93.10
2018-11-21T10:07:16.438Z,92.63
2018-11-21T10:09:45.113Z,93.12
2018-11-21T10:12:12.354Z,93.41
2018-11-21T10:14:39.881Z,94.64
2018-11-21T10:17:06.991Z,95.32
2018-11-21T10:19:41.608Z,95.40
2018-11-21T10:22:12.775Z,94.57
2018-11-21T10:24:40.779Z,94.33
2018-11-21T10:27:08.004Z,93.36
2018-11-21T10:29:35.453Z,92.09
2018-11-21T10:32:02.743Z,93.01
2018-11-21T10:34:29.942Z,93.03
2018-11-21T10:36:57.133Z,93.66
2018-11-21T10:39:24.316Z,96.10
2018-11-21T10:41:51.135Z,97.40
2018-11-21T10:44:18.350Z,97.43
2018-11-21T10:46:45.561Z,96.86
2018-11-21T10:49:14.803Z,96.70
2018-11-21T10:51:42.386Z,96.57
2018-11-21T10:54:09.562Z,94.82
2018-11-21T10:56:36.495Z,94.28
2018-11-21T10:59:03.491Z,94.07
2018-11-21T11:01:48.480Z,93.69
2018-11-21T11:04:42.045Z,92.69
2018-11-21T11:07:39.640Z,91.76
2018-11-21T11:10:25.689Z,91.76
2018-11-21T11:13:11.631Z,93.26
2018-11-21T11:16:00.593Z,94.49
2018-11-21T11:18:45.972Z,95.85
2018-11-21T11:21:31.995Z,96.27
2018-11-21T11:24:18.498Z,95.18
2018-11-21T11:27:13.537Z,95.18
2018-11-21T11:30:08.652Z,94.28
2018-11-21T11:32:57.366Z,93.21
2018-11-21T11:35:52.689Z,92.28
2018-11-21T11:38:45.721Z,91.71
2018-11-21T11:41:32.121Z,91.21
2018-11-21T11:44:18.214Z,91.21
2018-11-21T11:47:17.272Z,90.61
2018-11-21T11:50:02.598Z,91.47
2018-11-21T11:52:55.218Z,93.11
2018-11-21T11:55:29.064Z,94.02
2018-11-21T11:58:23.699Z,94.74
2018-11-21T12:01:22.599Z,95.11
2018-11-21T12:04:12.825Z,95.57
2018-11-21T12:06:57.812Z,94.49
2018-11-21T12:09:47.232Z,94.49
2018-11-21T12:12:40.168Z,93.72
2018-11-21T12:15:38.327Z,93.02
2018-11-21T12:18:23.770Z,91.55
2018-11-21T12:21:09.135Z,91.55
2018-11-21T12:23:49.944Z,90.95
2018-11-21T12:26:42.543Z,90.86
2018-11-21T12:29:31.373Z,90.07
2018-11-21T12:32:30.194Z,90.07
2018-11-21T12:35:32.006Z,89.93
2018-11-21T12:38:20.154Z,89.78
2018-11-21T12:41:21.616Z,89.32
2018-11-21T12:44:07.165Z,90.82
2018-11-21T12:47:06.497Z,91.48
2018-11-21T12:50:04.848Z,94.06
2018-11-21T12:53:04.192Z,95.27
2018-11-21T12:55:44.519Z,95.90
2018-11-21T12:58:36.854Z,95.71
2018-11-21T13:01:22.474Z,94.95
2018-11-21T13:04:17.975Z,93.82
2018-11-21T13:07:10.198Z,92.88
2018-11-21T13:10:00.525Z,91.63
2018-11-21T13:12:54.559Z,91.04
2018-11-21T13:15:43.421Z,91.89
2018-11-21T13:18:25.432Z,91.31
2018-11-21T13:21:18.769Z,90.74
2018-11-21T13:24:07.416Z,90.52
2018-11-21T13:26:54.035Z,90.52
2018-11-21T13:29:43.639Z,92.03
2018-11-21T13:32:30.645Z,92.03
2018-11-21T13:35:12.449Z,91.48
2018-11-21T13:38:23.263Z,91.97
2018-11-21T13:41:07.894Z,91.95
2018-11-21T13:43:53.682Z,92.46
2018-11-21T13:46:46.146Z,92.65
2018-11-21T13:49:39.509Z,92.80
2018-11-21T13:52:19.355Z,92.17
2018-11-21T13:54:49.863Z,91.94
2018-11-21T13:57:20.835Z,90.79
2018-11-21T13:59:48.050Z,92.38
2018-11-21T14:02:15.199Z,94.20
2018-11-21T14:04:42.364Z,94.20
2018-11-21T14:07:09.605Z,94.02
2018-11-21T14:09:37.331Z,94.02
2018-11-21T14:12:04.327Z,94.13
2018-11-21T14:14:31.212Z,94.13
2018-11-21T14:16:58.316Z,93.92
2018-11-21T14:19:26.127Z,94.05
2018-11-21T14:21:55.939Z,94.24
2018-11-21T14:24:20.607Z,94.11
2018-11-21T14:26:47.498Z,93.89
2018-11-21T14:29:14.649Z,94.57
2018-11-21T14:31:41.552Z,95.03
2018-11-21T14:34:08.442Z,95.49
2018-11-21T14:36:35.352Z,95.15
2018-11-21T14:39:05.621Z,94.98
2018-11-21T14:41:33.064Z,94.28
2018-11-21T14:43:59.987Z,93.88
2018-11-21T14:46:27.502Z,93.28
2018-11-21T14:48:54.770Z,92.94
2018-11-21T14:51:21.638Z,94.07
2018-11-21T14:53:48.852Z,94.63
2018-11-21T14:56:16.380Z,94.74
2018-11-21T14:58:43.460Z,94.40
2018-11-21T15:01:10.321Z,94.56
2018-11-21T15:03:37.538Z,94.05
2018-11-21T15:06:04.891Z,94.67
2018-11-21T15:08:32.086Z,95.04
2018-11-21T15:10:59.354Z,95.33
2018-11-21T15:13:26.543Z,95.53
2018-11-21T15:15:53.424Z,94.99
2018-11-21T15:18:21.111Z,94.08
2018-11-21T15:20:48.271Z,93.68
2018-11-21T15:23:16.388Z,92.73
2018-11-21T15:25:43.289Z,92.55
2018-11-21T15:28:10.460Z,91.55
2018-11-21T15:30:37.333Z,91.55
2018-11-21T15:33:05.005Z,91.67
2018-11-21T15:35:32.171Z,91.67
2018-11-21T15:37:59.458Z,92.11
2018-11-21T15:40:26.633Z,92.47
2018-11-21T15:42:53.517Z,93.35
2018-11-21T15:45:21.702Z,93.86
2018-11-21T15:47:53.288Z,93.76
2018-11-21T15:50:23.696Z,93.05
2018-11-21T15:52:53.091Z,93.05
2018-11-21T15:55:20.853Z,93.07
2018-11-21T15:57:51.202Z,92.70
2018-11-21T16:00:20.742Z,92.16
2018-11-21T16:02:49.746Z,92.16
2018-11-21T16:05:17.955Z,92.11
2018-11-21T16:07:45.145Z,92.36
2018-11-21T16:10:19.856Z,92.36
2018-11-21T16:12:46.820Z,91.51
2018-11-21T16:15:16.244Z,91.35
2018-11-21T16:17:44.569Z,91.04
2018-11-21T16:20:12.815Z,91.24
2018-11-21T16:22:39.675Z,90.92
2018-11-21T16:25:08.041Z,90.19
2018-11-21T16:27:34.919Z,90.24
2018-11-21T16:30:02.168Z,90.24
2018-11-21T16:32:29.023Z,89.90
2018-11-21T16:34:55.850Z,89.52
2018-11-21T16:37:23.055Z,89.42
2018-11-21T16:39:49.878Z,89.39
2018-11-21T16:42:16.814Z,90.28
2018-11-21T16:44:44.609Z,90.93
2018-11-21T16:47:13.611Z,91.19
2018-11-21T16:49:40.853Z,91.29
2018-11-21T16:52:08.433Z,92.44
2018-11-21T16:54:36.076Z,92.48
2018-11-21T16:57:02.905Z,92.44
2018-11-21T16:59:32.648Z,93.10
2018-11-21T17:01:59.796Z,92.71
2018-11-21T17:04:27.332Z,92.71
2018-11-21T17:06:54.574Z,92.74
2018-11-21T17:09:22.129Z,92.32
2018-11-21T17:11:49.052Z,92.32
2018-11-21T17:14:18.349Z,92.81
2018-11-21T17:16:45.542Z,92.96
2018-11-21T17:19:12.602Z,92.94
2018-11-21T17:21:39.489Z,93.46
2018-11-21T17:24:06.351Z,93.32
2018-11-21T17:26:33.237Z,93.65
2018-11-21T17:29:00.061Z,94.42
2018-11-21T17:31:27.589Z,94.69
2018-11-21T17:33:54.524Z,94.00
2018-11-21T17:36:21.412Z,94.00
2018-11-21T17:38:48.610Z,93.80
2018-11-21T17:41:15.480Z,93.95
2018-11-21T17:43:42.482Z,94.11
2018-11-21T17:46:09.667Z,94.34
2018-11-21T17:48:36.549Z,94.41
2018-11-21T17:51:03.767Z,94.63
2018-11-21T17:53:30.750Z,94.95
2018-11-21T17:55:58.740Z,95.35
2018-11-21T17:58:25.800Z,95.60
2018-11-21T18:00:52.692Z,95.54
2018-11-21T18:03:19.544Z,95.64
2018-11-21T18:05:46.876Z,95.07
2018-11-21T18:08:14.136Z,95.30
2018-11-21T18:10:41.298Z,94.88
2018-11-21T18:13:08.246Z,94.88
2018-11-21T18:15:35.434Z,94.87
2018-11-21T18:18:02.614Z,94.59
2018-11-21T18:20:29.780Z,94.27
2018-11-21T18:22:56.931Z,93.83
2018-11-21T18:25:28.624Z,93.81
2018-11-21T18:27:56.189Z,93.72
2018-11-21T18:30:23.945Z,93.72
2018-11-21T18:32:51.504Z,92.71
2018-11-21T18:35:19.782Z,92.71
2018-11-21T18:37:47.141Z,92.64
2018-11-21T18:40:15.517Z,92.34
2018-11-21T18:42:43.345Z,91.92
2018-11-21T18:45:24.925Z,91.92
2018-11-21T18:47:52.211Z,92.31
2018-11-21T18:50:19.595Z,92.80
2018-11-21T18:52:52.131Z,92.67
2018-11-21T18:55:21.250Z,92.90
2018-11-21T18:58:45.798Z,92.44
2018-11-21T19:01:13.366Z,92.44
2018-11-21T19:03:41.017Z,92.31
2018-11-21T19:06:08.182Z,92.31
2018-11-21T19:08:35.062Z,92.17
2018-11-21T19:11:01.959Z,90.95
2018-11-21T19:13:29.383Z,90.95
2018-11-21T19:15:56.648Z,90.93
2018-11-21T19:18:23.778Z,90.66
2018-11-21T19:20:51.271Z,90.66
2018-11-21T19:23:18.216Z,90.28
2018-11-21T19:25:45.293Z,90.08
2018-11-21T19:28:11.890Z,89.24
2018-11-21T19:30:39.388Z,88.85
2018-11-21T19:33:06.316Z,88.62
2018-11-21T19:35:33.768Z,88.15
2018-11-21T19:38:00.691Z,88.09
2018-11-21T19:40:27.563Z,88.27
2018-11-21T19:42:54.418Z,88.57
2018-11-21T19:45:21.278Z,88.54
2018-11-21T19:47:48.672Z,88.54
2018-11-21T19:50:16.590Z,88.66
2018-11-21T19:52:44.730Z,88.40
2018-11-21T19:55:13.538Z,87.92
2018-11-21T19:57:45.116Z,88.28
2018-11-21T20:00:17.777Z,88.00
2018-11-21T20:02:45.488Z,88.86
2018-11-21T20:05:12.845Z,89.75
2018-11-21T20:07:43.033Z,89.66
2018-11-21T20:10:14.463Z,90.10
2018-11-21T20:12:41.840Z,89.93
2018-11-21T20:15:11.542Z,89.67
2018-11-21T20:17:46.679Z,89.93
2018-11-21T20:20:17.580Z,89.78
2018-11-21T20:22:44.863Z,89.46
2018-11-21T20:25:13.896Z,89.00
2018-11-21T20:27:41.147Z,88.50
2018-11-21T20:30:10.184Z,87.94
2018-11-21T20:32:37.034Z,87.73
2018-11-21T20:35:07.466Z,87.51
2018-11-21T20:37:31.006Z,87.37
2018-11-21T20:39:58.258Z,87.36
2018-11-21T20:42:25.162Z,87.10
2018-11-21T20:44:52.447Z,86.84
2018-11-21T20:47:19.671Z,87.02
2018-11-21T20:49:46.895Z,87.38
2018-11-21T20:52:14.158Z,88.25
2018-11-21T20:54:41.473Z,88.93
2018-11-21T20:57:08.638Z,89.83
2018-11-21T20:59:35.872Z,90.79
2018-11-21T21:02:03.641Z,90.91
2018-11-21T21:04:30.871Z,89.84
2018-11-21T21:06:57.779Z,90.02
2018-11-21T21:09:24.936Z,90.10
2018-11-21T21:11:58.485Z,89.68
2018-11-21T21:14:25.455Z,89.73
2018-11-21T21:16:52.563Z,90.08
2018-11-21T21:19:20.685Z,90.02
2018-11-21T21:21:47.469Z,90.44
2018-11-21T21:24:14.838Z,90.75
2018-11-21T21:26:41.818Z,90.24
2018-11-21T21:29:09.057Z,90.37
2018-11-21T21:31:35.885Z,90.28
2018-11-21T21:34:03.246Z,90.84
2018-11-21T21:36:30.436Z,90.57
2018-11-21T21:38:57.373Z,90.27
2018-11-21T21:41:24.318Z,89.64
2018-11-21T21:43:51.627Z,89.28
2018-11-21T21:46:18.542Z,88.82
2018-11-21T21:48:45.727Z,88.15
2018-11-21T21:51:13.047Z,88.07
2018-11-21T21:53:39.957Z,87.89
2018-11-21T21:56:07.139Z,88.87
2018-11-21T21:58:34.339Z,89.26
2018-11-21T22:01:01.328Z,89.40
2018-11-21T22:03:28.142Z,89.44
2018-11-21T22:05:55.361Z,89.30
2018-11-21T22:08:22.672Z,89.81
2018-11-21T22:10:50.770Z,90.49
2018-11-21T22:13:18.276Z,90.28
2018-11-21T22:15:45.396Z,90.14
2018-11-21T22:18:13.414Z,90.15
2018-11-21T22:20:40.582Z,90.18
2018-11-21T22:23:07.681Z,90.01
2018-11-21T22:25:34.597Z,90.05
2018-11-21T22:28:01.908Z,91.06
2018-11-21T22:30:29.098Z,91.13
2018-11-21T22:32:57.115Z,91.18
2018-11-21T22:35:25.643Z,91.44
2018-11-21T22:37:52.546Z,91.91
2018-11-21T22:40:20.248Z,92.14
2018-11-21T22:42:48.378Z,91.84
2018-11-21T22:45:16.523Z,91.25
2018-11-21T22:47:43.531Z,91.06
2018-11-21T22:50:12.210Z,91.53
2018-11-21T22:52:39.126Z,91.43
2018-11-21T22:55:06.328Z,91.80
2018-11-21T22:57:33.343Z,92.08
2018-11-21T23:00:00.971Z,92.55
2018-11-21T23:02:28.242Z,92.37
2018-11-21T23:04:55.627Z,92.37
2018-11-21T23:07:23.653Z,92.57
2018-11-21T23:09:50.454Z,92.38
2018-11-21T23:12:17.260Z,92.12
2018-11-21T23:14:44.677Z,92.27
2018-11-21T23:17:12.204Z,92.06
2018-11-21T23:19:39.102Z,92.70
2018-11-21T23:22:05.964Z,92.77
2018-11-21T23:24:38.963Z,92.82
2018-11-21T23:27:06.751Z,92.38
2018-11-21T23:29:34.313Z,92.57
2018-11-21T23:32:01.240Z,92.57
2018-11-21T23:34:28.789Z,92.80
2018-11-21T23:36:55.652Z,93.23
2018-11-21T23:39:22.885Z,93.45
2018-11-21T23:41:49.825Z,93.46
2018-11-21T23:44:16.672Z,92.93
2018-11-21T23:46:43.922Z,92.93
2018-11-21T23:49:12.572Z,92.79
2018-11-21T23:51:39.789Z,93.08
2018-11-21T23:54:07.048Z,93.26
2018-11-21T23:56:34.293Z,93.26
2018-11-21T23:59:01.717Z,93.34
